createdAt,value
2022-10-18T00:00:15.767Z,86.25
2022-10-18T00:02:42.778Z,86.03
2022-10-18T00:05:09.965Z,85.38
2022-10-18T00:07:36.854Z,85.13
2022-10-18T00:10:04.839Z,85.43
2022-10-18T00:12:34.730Z,85.61
2022-10-18T00:15:07.479Z,85.60
2022-10-18T00:17:36.151Z,85.95
2022-10-18T00:20:03.118Z,85.54
2022-10-18T00:22:30.389Z,85.63
2022-10-18T00:24:57.612Z,85.93
2022-10-18T00:27:24.506Z,85.65
2022-10-18T00:29:54.550Z,85.34
2022-10-18T00:32:21.532Z,85.58
2022-10-18T00:34:48.496Z,85.68
2022-10-18T00:37:15.765Z,85.49
2022-10-18T00:39:42.839Z,85.53
2022-10-18T00:42:21.510Z,85.53
2022-10-18T00:44:51.468Z,85.42
2022-10-18T00:47:19.691Z,85.16
2022-10-18T00:49:55.251Z,85.42
2022-10-18T00:52:27.512Z,85.18
2022-10-18T00:54:56.079Z,84.49
2022-10-18T00:57:24.476Z,84.62
2022-10-18T00:59:51.890Z,84.46
2022-10-18T01:02:19.264Z,84.60
2022-10-18T01:04:47.936Z,85.41
2022-10-18T01:07:36.477Z,85.77
2022-10-18T01:10:29.417Z,86.08
2022-10-18T01:13:30.171Z,86.24
2022-10-18T01:16:00.057Z,86.08
2022-10-18T01:18:34.279Z,86.00
2022-10-18T01:21:47.538Z,86.25
2022-10-18T01:25:06.521Z,85.83
2022-10-18T01:27:43.458Z,86.08
2022-10-18T01:31:07.198Z,85.90
2022-10-18T01:33:43.096Z,86.58
2022-10-18T01:36:28.541Z,86.63
2022-10-18T01:38:59.722Z,86.31
2022-10-18T01:41:28.485Z,86.45
2022-10-18T01:44:00.987Z,86.35
2022-10-18T01:46:29.109Z,86.00
2022-10-18T01:48:57.025Z,85.99
2022-10-18T01:51:28.651Z,85.63
2022-10-18T01:53:56.113Z,85.86
2022-10-18T01:56:32.147Z,86.65
2022-10-18T01:59:19.266Z,85.95
2022-10-18T02:02:07.863Z,86.80
2022-10-18T02:05:06.979Z,86.67
2022-10-18T02:07:55.426Z,86.56
2022-10-18T02:10:52.251Z,86.71
2022-10-18T02:13:22.378Z,86.74
2022-10-18T02:15:54.949Z,86.11
2022-10-18T02:18:29.097Z,86.42
2022-10-18T02:20:57.838Z,86.39
2022-10-18T02:23:26.659Z,86.32
2022-10-18T02:25:54.506Z,86.42
2022-10-18T02:28:22.375Z,85.83
2022-10-18T02:31:02.902Z,86.11
2022-10-18T02:33:49.846Z,86.45
2022-10-18T02:36:24.000Z,86.06
2022-10-18T02:38:56.282Z,86.22
2022-10-18T02:41:27.646Z,86.65
2022-10-18T02:43:54.763Z,86.77
2022-10-18T02:46:21.813Z,85.55
2022-10-18T02:48:49.034Z,85.77
2022-10-18T02:51:16.306Z,86.50
2022-10-18T02:53:43.256Z,86.80
2022-10-18T02:56:10.162Z,87.13
2022-10-18T02:58:37.060Z,87.92
2022-10-18T03:01:04.028Z,87.63
2022-10-18T03:03:30.901Z,88.78
2022-10-18T03:05:57.775Z,89.45
2022-10-18T03:08:24.883Z,89.15
2022-10-18T03:10:51.944Z,89.70
2022-10-18T03:13:18.978Z,89.75
2022-10-18T03:15:47.166Z,89.57
2022-10-18T03:18:14.409Z,88.79
2022-10-18T03:20:41.657Z,88.59
2022-10-18T03:23:08.937Z,88.86
2022-10-18T03:25:35.916Z,89.39
2022-10-18T03:28:02.836Z,89.51
2022-10-18T03:30:29.737Z,89.46
2022-10-18T03:32:56.582Z,89.94
2022-10-18T03:35:23.552Z,89.10
2022-10-18T03:37:50.838Z,89.27
2022-10-18T03:40:18.100Z,89.27
2022-10-18T03:42:45.076Z,89.59
2022-10-18T03:45:11.967Z,89.44
2022-10-18T03:47:38.910Z,88.84
2022-10-18T03:50:06.175Z,89.40
2022-10-18T03:52:33.333Z,88.98
2022-10-18T03:55:00.436Z,90.00
2022-10-18T03:57:27.299Z,89.88
2022-10-18T03:59:54.167Z,89.88
2022-10-18T04:02:21.001Z,89.93
2022-10-18T04:04:47.923Z,89.82
2022-10-18T04:07:14.892Z,89.35
2022-10-18T04:09:41.763Z,89.35
2022-10-18T04:12:08.637Z,89.31
2022-10-18T04:14:35.820Z,89.33
2022-10-18T04:17:02.936Z,89.38
2022-10-18T04:19:29.794Z,89.98
2022-10-18T04:21:56.721Z,89.33
2022-10-18T04:24:23.573Z,89.33
2022-10-18T04:26:50.534Z,89.88
2022-10-18T04:29:17.570Z,89.00
2022-10-18T04:31:44.470Z,88.86
2022-10-18T04:34:11.534Z,89.31
2022-10-18T04:36:38.456Z,89.39
2022-10-18T04:39:05.330Z,90.63
2022-10-18T04:41:32.200Z,90.04
2022-10-18T04:43:59.769Z,90.62
2022-10-18T04:46:26.735Z,90.05
2022-10-18T04:48:53.635Z,89.78
2022-10-18T04:51:20.587Z,90.45
2022-10-18T04:53:47.466Z,89.99
2022-10-18T04:56:14.339Z,90.02
2022-10-18T04:58:41.202Z,89.69
2022-10-18T05:01:08.399Z,90.65
2022-10-18T05:03:35.724Z,90.57
2022-10-18T05:06:03.534Z,90.12
2022-10-18T05:08:32.093Z,90.28
2022-10-18T05:10:59.420Z,90.70
2022-10-18T05:13:27.056Z,90.30
2022-10-18T05:15:53.947Z,90.08
2022-10-18T05:18:20.850Z,90.24
2022-10-18T05:20:47.835Z,90.45
2022-10-18T05:23:14.811Z,90.10
2022-10-18T05:25:44.679Z,89.70
2022-10-18T05:28:34.575Z,89.70
2022-10-18T05:31:03.007Z,89.92
2022-10-18T05:33:29.926Z,89.93
2022-10-18T05:35:57.093Z,90.29
2022-10-18T05:38:24.461Z,90.39
2022-10-18T05:40:52.129Z,89.91
2022-10-18T05:43:19.016Z,89.36
2022-10-18T05:45:52.089Z,89.41
2022-10-18T05:48:19.134Z,89.20
2022-10-18T05:50:46.505Z,88.90
2022-10-18T05:53:35.227Z,88.85
2022-10-18T05:56:04.249Z,88.94
2022-10-18T05:58:31.094Z,88.30
2022-10-18T06:01:02.349Z,88.02
2022-10-18T06:03:30.965Z,87.94
2022-10-18T06:06:07.315Z,87.65
2022-10-18T06:08:34.792Z,87.72
2022-10-18T06:11:08.294Z,87.69
2022-10-18T06:13:35.401Z,86.94
2022-10-18T06:16:02.326Z,86.84
2022-10-18T06:18:29.951Z,87.02
2022-10-18T06:20:58.239Z,86.99
2022-10-18T06:23:26.245Z,86.29
2022-10-18T06:25:53.107Z,86.01
2022-10-18T06:28:20.032Z,85.72
2022-10-18T06:30:46.899Z,85.98
2022-10-18T06:33:13.847Z,85.22
2022-10-18T06:35:41.040Z,85.16
2022-10-18T06:38:08.027Z,85.37
2022-10-18T06:40:38.105Z,84.54
2022-10-18T06:43:20.488Z,84.00
2022-10-18T06:45:48.728Z,84.00
2022-10-18T06:48:16.073Z,83.11
2022-10-18T06:50:43.161Z,82.33
2022-10-18T06:53:10.341Z,82.11
2022-10-18T06:55:37.243Z,82.26
2022-10-18T06:58:04.366Z,81.64
2022-10-18T07:00:31.246Z,81.27
2022-10-18T07:02:58.464Z,80.78
2022-10-18T07:05:25.586Z,79.96
2022-10-18T07:07:55.688Z,80.38
2022-10-18T07:10:24.353Z,80.30
2022-10-18T07:12:59.178Z,79.87
2022-10-18T07:15:38.638Z,79.26
2022-10-18T07:18:05.878Z,78.58
2022-10-18T07:20:32.735Z,78.62
2022-10-18T07:22:59.633Z,77.71
2022-10-18T07:25:28.478Z,78.44
2022-10-18T07:27:57.532Z,77.10
2022-10-18T07:30:24.532Z,76.72
2022-10-18T07:32:52.003Z,75.85
2022-10-18T07:35:18.874Z,75.39
2022-10-18T07:37:45.852Z,75.26
2022-10-18T07:40:44.754Z,73.45
2022-10-18T07:43:12.396Z,74.93
2022-10-18T07:45:39.408Z,74.46
2022-10-18T07:48:06.730Z,73.93
2022-10-18T07:50:41.341Z,72.86
2022-10-18T07:53:08.334Z,72.70
2022-10-18T07:55:35.278Z,73.59
2022-10-18T07:58:02.227Z,72.87
2022-10-18T08:00:29.126Z,71.63
2022-10-18T08:02:57.749Z,71.65
2022-10-18T08:05:26.862Z,70.33
2022-10-18T08:07:54.921Z,70.68
2022-10-18T08:10:24.267Z,69.91
2022-10-18T08:12:51.969Z,69.65
2022-10-18T08:15:19.003Z,69.56
2022-10-18T08:17:45.865Z,69.07
2022-10-18T08:20:29.771Z,69.03
2022-10-18T08:23:00.059Z,69.16
2022-10-18T08:25:28.515Z,69.00
2022-10-18T08:27:55.492Z,66.98
2022-10-18T08:30:23.569Z,66.86
2022-10-18T08:32:50.641Z,66.44
2022-10-18T08:35:17.558Z,66.56
2022-10-18T08:37:45.475Z,67.09
2022-10-18T08:40:16.065Z,65.39
2022-10-18T08:42:52.882Z,65.80
2022-10-18T08:45:37.489Z,65.08
2022-10-18T08:48:08.370Z,63.99
2022-10-18T08:50:37.950Z,63.03
2022-10-18T08:53:23.459Z,63.79
2022-10-18T08:56:00.378Z,63.71
2022-10-18T08:58:31.707Z,63.31
2022-10-18T09:01:19.707Z,61.68
2022-10-18T09:04:21.841Z,61.18
2022-10-18T09:07:15.742Z,61.76
2022-10-18T09:09:55.311Z,61.75
2022-10-18T09:12:31.538Z,61.57
2022-10-18T09:15:12.969Z,60.80
2022-10-18T09:18:06.110Z,60.09
2022-10-18T09:21:01.754Z,59.91
2022-10-18T09:23:49.514Z,59.51
2022-10-18T09:26:21.850Z,59.67
2022-10-18T09:28:58.263Z,58.80
2022-10-18T09:31:43.846Z,59.36
2022-10-18T09:34:34.790Z,59.61
2022-10-18T09:37:03.167Z,59.80
2022-10-18T09:39:33.777Z,59.75
2022-10-18T09:42:26.995Z,59.48
2022-10-18T10:16:23.113Z,53.46
2022-10-18T10:18:54.471Z,50.50
2022-10-18T10:21:22.443Z,48.76
2022-10-18T10:23:59.728Z,47.80
2022-10-18T10:26:33.984Z,48.25
2022-10-18T10:29:01.365Z,47.14
2022-10-18T10:31:33.508Z,46.74
2022-10-18T10:34:19.366Z,47.79
2022-10-18T10:36:54.918Z,45.91
2022-10-18T10:39:24.605Z,47.25
2022-10-18T10:41:58.866Z,46.60
2022-10-18T10:44:30.531Z,46.35
2022-10-18T10:46:58.566Z,47.73
2022-10-18T10:49:46.276Z,45.70
2022-10-18T10:52:26.886Z,44.86
2022-10-18T10:55:05.760Z,45.60
2022-10-18T10:57:39.095Z,46.58
2022-10-18T11:00:06.365Z,46.75
2022-10-18T11:02:36.174Z,45.84
2022-10-18T11:05:23.559Z,45.92
2022-10-18T11:07:55.245Z,45.48
2022-10-18T11:10:28.453Z,45.92
2022-10-18T11:13:03.742Z,45.73
2022-10-18T11:15:38.403Z,45.36
2022-10-18T11:18:33.551Z,45.24
2022-10-18T11:21:00.468Z,45.70
2022-10-18T11:23:36.099Z,45.19
2022-10-18T11:26:11.644Z,46.05
2022-10-18T11:29:09.892Z,48.24
2022-10-18T11:32:14.021Z,48.77
2022-10-18T11:34:51.297Z,49.79
2022-10-18T11:37:46.549Z,50.51
2022-10-18T11:40:46.313Z,51.74
2022-10-18T11:43:17.176Z,52.31
2022-10-18T11:46:13.198Z,51.65
2022-10-18T11:48:48.835Z,51.83
2022-10-18T11:51:56.401Z,51.20
2022-10-18T11:54:55.866Z,51.34
2022-10-18T11:58:04.067Z,51.69
2022-10-18T12:00:58.248Z,51.95
2022-10-18T12:03:30.938Z,52.61
2022-10-18T12:06:01.273Z,51.56
2022-10-18T12:08:43.038Z,52.00
2022-10-18T12:11:15.942Z,51.15
2022-10-18T12:13:57.823Z,50.58
2022-10-18T12:16:49.868Z,51.86
2022-10-18T12:19:27.089Z,53.04
2022-10-18T12:21:57.731Z,53.16
2022-10-18T12:24:30.508Z,52.73
2022-10-18T12:27:00.475Z,54.80
2022-10-18T12:29:50.718Z,53.84
2022-10-18T12:32:30.343Z,54.36
2022-10-18T12:35:03.588Z,52.83
2022-10-18T12:37:43.788Z,52.76
2022-10-18T12:40:41.020Z,52.33
2022-10-18T12:43:19.037Z,52.41
2022-10-18T12:45:53.654Z,52.75
2022-10-18T12:48:42.510Z,53.13
2022-10-18T12:51:17.175Z,52.91
2022-10-18T12:53:52.384Z,53.41
2022-10-18T12:56:28.477Z,53.96
2022-10-18T12:59:14.286Z,54.74
2022-10-18T13:01:53.642Z,55.14
2022-10-18T13:04:29.800Z,54.39
2022-10-18T13:07:05.411Z,55.82
2022-10-18T13:09:36.590Z,55.80
2022-10-18T13:12:09.489Z,56.59
2022-10-18T13:15:13.483Z,57.79
2022-10-18T13:18:00.809Z,56.06
2022-10-18T13:20:53.719Z,56.74
2022-10-18T13:23:42.661Z,56.29
2022-10-18T13:26:28.113Z,56.54
2022-10-18T13:29:06.145Z,55.89
2022-10-18T13:31:49.568Z,56.43
2022-10-18T13:34:39.196Z,56.72
2022-10-18T13:37:09.261Z,55.70
2022-10-18T13:39:37.457Z,56.27
2022-10-18T13:42:04.319Z,57.30
2022-10-18T13:44:40.168Z,57.60
2022-10-18T13:47:07.198Z,55.99
2022-10-18T13:49:45.013Z,55.58
2022-10-18T13:52:30.328Z,56.17
2022-10-18T13:55:06.619Z,55.75
2022-10-18T13:57:51.735Z,57.09
2022-10-18T14:00:33.702Z,56.06
2022-10-18T14:03:56.301Z,56.96
2022-10-18T14:06:25.439Z,56.83
2022-10-18T14:12:10.855Z,58.95
2022-10-18T14:14:55.983Z,59.26
2022-10-18T14:17:28.764Z,59.03
2022-10-18T14:20:27.203Z,59.14
2022-10-18T14:23:07.879Z,60.28
2022-10-18T14:25:37.130Z,59.38
2022-10-18T14:28:17.617Z,58.34
2022-10-18T14:30:58.297Z,59.31
2022-10-18T14:33:34.750Z,59.05
2022-10-18T14:36:14.503Z,60.40
2022-10-18T14:39:02.818Z,59.96
2022-10-18T14:41:30.787Z,59.69
2022-10-18T14:44:15.827Z,59.47
2022-10-18T14:46:46.647Z,60.78
2022-10-18T14:49:14.998Z,60.92
2022-10-18T14:51:46.334Z,61.21
2022-10-18T14:54:20.303Z,60.75
2022-10-18T14:56:48.987Z,59.71
2022-10-18T14:59:20.919Z,59.93
2022-10-18T15:02:14.823Z,59.63
2022-10-18T15:05:41.697Z,59.81
2022-10-18T15:08:10.475Z,62.43
2022-10-18T15:10:38.133Z,61.46
2022-10-18T15:13:10.450Z,61.47
2022-10-18T15:15:39.999Z,61.51
2022-10-18T15:18:23.979Z,62.65
2022-10-18T15:21:18.861Z,63.68
2022-10-18T15:23:47.348Z,63.68
2022-10-18T15:26:21.548Z,63.55
2022-10-18T15:29:19.886Z,64.56
2022-10-18T15:31:49.421Z,66.02
2022-10-18T15:34:27.351Z,66.03
2022-10-18T15:36:56.706Z,65.97
2022-10-18T15:39:24.912Z,66.22
2022-10-18T15:41:53.011Z,66.58
2022-10-18T15:44:24.244Z,67.00
2022-10-18T15:47:13.923Z,67.09
2022-10-18T15:49:46.836Z,67.26
2022-10-18T15:52:37.761Z,67.40
2022-10-18T15:55:30.136Z,68.52
2022-10-18T15:58:04.544Z,69.19
2022-10-18T16:00:31.688Z,69.41
2022-10-18T16:02:58.827Z,70.58
2022-10-18T16:05:25.874Z,70.29
2022-10-18T16:07:53.137Z,70.97
2022-10-18T16:10:20.571Z,70.78
2022-10-18T16:12:47.627Z,70.92
2022-10-18T16:15:14.546Z,70.72
2022-10-18T16:17:41.601Z,70.86
2022-10-18T16:20:20.938Z,71.57
2022-10-18T16:22:48.369Z,70.59
2022-10-18T16:25:15.324Z,70.34
2022-10-18T16:27:42.485Z,70.57
2022-10-18T16:30:16.509Z,71.22
2022-10-18T16:32:43.550Z,71.29
2022-10-18T16:35:12.228Z,71.12
2022-10-18T16:37:40.049Z,71.20
2022-10-18T16:40:35.429Z,71.58
2022-10-18T16:43:04.574Z,71.33
2022-10-18T16:45:31.608Z,73.33
2022-10-18T16:47:58.843Z,72.55
2022-10-18T16:50:25.834Z,72.66
2022-10-18T16:52:52.768Z,72.86
2022-10-18T16:55:25.100Z,72.89
2022-10-18T16:57:52.414Z,72.73
2022-10-18T17:00:22.837Z,73.78
2022-10-18T17:02:50.077Z,73.90
2022-10-18T17:05:18.465Z,73.04
2022-10-18T17:07:46.924Z,73.21
2022-10-18T17:10:17.081Z,74.08
2022-10-18T17:12:44.218Z,74.63
2022-10-18T17:15:11.768Z,74.24
2022-10-18T17:17:39.468Z,73.72
2022-10-18T17:20:07.828Z,73.90
2022-10-18T17:22:35.259Z,73.50
2022-10-18T17:25:02.592Z,73.65
2022-10-18T17:27:29.685Z,73.20
2022-10-18T17:29:57.699Z,72.96
2022-10-18T17:32:24.706Z,74.06
2022-10-18T17:34:51.750Z,73.25
2022-10-18T17:37:18.768Z,73.73
2022-10-18T17:39:45.790Z,73.14
2022-10-18T17:42:12.732Z,74.40
2022-10-18T17:44:39.775Z,73.96
2022-10-18T17:47:07.810Z,73.01
2022-10-18T17:49:34.833Z,73.05
2022-10-18T17:52:06.099Z,73.59
2022-10-18T17:54:34.049Z,73.50
2022-10-18T17:57:00.977Z,73.49
2022-10-18T17:59:28.947Z,73.30
2022-10-18T18:01:55.958Z,73.11
2022-10-18T18:04:23.830Z,72.73
2022-10-18T18:06:52.923Z,73.14
2022-10-18T18:09:20.092Z,74.94
2022-10-18T18:11:51.628Z,74.93
2022-10-18T18:14:18.535Z,74.39
2022-10-18T18:16:46.848Z,74.95
2022-10-18T18:19:14.966Z,74.67
2022-10-18T18:21:42.906Z,74.15
2022-10-18T18:24:10.973Z,74.98
2022-10-18T18:26:39.218Z,74.69
2022-10-18T18:29:06.898Z,74.28
2022-10-18T18:31:39.933Z,74.80
2022-10-18T18:34:09.911Z,74.07
2022-10-18T18:36:36.842Z,74.14
2022-10-18T18:39:05.843Z,73.25
2022-10-18T18:41:33.589Z,73.63
2022-10-18T18:44:05.895Z,73.07
2022-10-18T18:46:38.969Z,73.58
2022-10-18T18:49:07.195Z,73.87
2022-10-18T18:51:37.873Z,74.03
2022-10-18T18:54:05.388Z,74.51
2022-10-18T18:56:32.411Z,75.62
2022-10-18T18:59:00.438Z,75.39
2022-10-18T19:01:30.067Z,75.88
2022-10-18T19:03:58.695Z,75.22
2022-10-18T19:06:36.889Z,74.96
2022-10-18T19:09:07.462Z,74.66
2022-10-18T19:11:36.237Z,75.55
2022-10-18T19:14:04.034Z,75.60
2022-10-18T19:16:36.021Z,74.86
2022-10-18T19:19:13.189Z,75.67
2022-10-18T19:21:44.441Z,76.53
2022-10-18T19:24:11.703Z,77.20
2022-10-18T19:26:47.612Z,77.93
2022-10-18T19:29:26.221Z,78.49
2022-10-18T19:31:56.409Z,81.09
2022-10-18T19:34:24.694Z,78.98
2022-10-18T19:36:52.081Z,79.82
2022-10-18T19:39:21.723Z,79.12
2022-10-18T19:41:50.790Z,79.65
2022-10-18T19:44:21.641Z,78.96
2022-10-18T19:46:49.126Z,77.53
2022-10-18T19:49:16.963Z,78.13
2022-10-18T19:51:43.940Z,77.38
2022-10-18T19:54:14.601Z,76.91
2022-10-18T19:56:42.617Z,76.83
2022-10-18T19:59:11.012Z,77.07
2022-10-18T20:01:38.124Z,76.72
2022-10-18T20:04:05.361Z,76.90
2022-10-18T20:06:32.575Z,76.87
2022-10-18T20:08:59.566Z,76.22
2022-10-18T20:11:29.015Z,75.88
2022-10-18T20:13:56.852Z,76.24
2022-10-18T20:16:28.847Z,75.54
2022-10-18T20:19:07.508Z,75.73
2022-10-18T20:21:36.250Z,75.98
2022-10-18T20:24:04.867Z,76.05
2022-10-18T20:26:32.304Z,76.40
2022-10-18T20:29:00.080Z,76.26
2022-10-18T20:31:30.476Z,77.06
2022-10-18T20:34:01.359Z,76.26
2022-10-18T20:36:30.570Z,78.21
2022-10-18T20:38:57.782Z,79.53
2022-10-18T20:41:27.867Z,79.00
2022-10-18T20:44:03.238Z,80.18
2022-10-18T20:46:32.123Z,81.26
2022-10-18T20:48:59.118Z,80.25
2022-10-18T20:51:26.680Z,80.52
2022-10-18T20:53:54.079Z,81.69
2022-10-18T20:56:23.772Z,81.71
2022-10-18T20:58:51.995Z,82.15
2022-10-18T21:01:38.391Z,82.50
2022-10-18T21:04:09.175Z,83.43
2022-10-18T21:06:40.303Z,82.77
2022-10-18T21:09:10.999Z,82.44
2022-10-18T21:11:40.602Z,82.21
2022-10-18T21:14:08.183Z,85.18
2022-10-18T21:16:36.162Z,84.03
2022-10-18T21:19:04.271Z,82.40
2022-10-18T21:21:31.434Z,82.85
2022-10-18T21:24:01.197Z,83.54
2022-10-18T21:26:30.899Z,84.77
2022-10-18T21:28:58.940Z,85.50
2022-10-18T21:31:28.670Z,85.16
2022-10-18T21:33:58.289Z,85.62
2022-10-18T21:36:26.557Z,84.88
2022-10-18T21:38:53.520Z,85.84
2022-10-18T21:41:21.830Z,88.22
2022-10-18T21:43:52.153Z,88.58
2022-10-18T21:46:21.298Z,88.62
2022-10-18T21:48:51.739Z,89.01
2022-10-18T21:51:20.827Z,89.55
2022-10-18T21:53:50.332Z,89.50
2022-10-18T21:56:19.847Z,89.13
2022-10-18T21:58:47.618Z,89.15
2022-10-18T22:01:17.685Z,88.93
2022-10-18T22:03:45.463Z,88.38
2022-10-18T22:06:14.761Z,88.29
2022-10-18T22:08:48.739Z,87.50
2022-10-18T22:11:16.283Z,87.62
2022-10-18T22:13:43.494Z,87.10
2022-10-18T22:16:12.502Z,86.54
2022-10-18T22:18:39.399Z,87.04
2022-10-18T22:21:08.040Z,88.11
2022-10-18T22:23:59.512Z,88.45
2022-10-18T22:26:32.601Z,87.90
2022-10-18T22:29:06.543Z,88.02
2022-10-18T22:31:36.266Z,88.09
2022-10-18T22:34:06.552Z,88.03
2022-10-18T22:36:34.954Z,88.34
2022-10-18T22:39:02.078Z,88.70
2022-10-18T22:41:29.080Z,88.62
2022-10-18T22:43:58.404Z,88.70
2022-10-18T22:46:28.232Z,89.07
2022-10-18T22:48:55.288Z,89.32
2022-10-18T22:51:22.286Z,89.15
2022-10-18T22:53:49.365Z,89.39
2022-10-18T22:56:18.899Z,89.33
2022-10-18T22:58:46.638Z,89.39
2022-10-18T23:01:15.901Z,89.33
2022-10-18T23:03:43.093Z,89.64
2022-10-18T23:06:26.427Z,89.41
2022-10-18T23:08:54.983Z,89.24
2022-10-18T23:11:24.492Z,88.91
2022-10-18T23:13:51.867Z,88.40
2022-10-18T23:16:19.355Z,88.58
2022-10-18T23:18:54.155Z,87.39
2022-10-18T23:21:23.829Z,87.42
2022-10-18T23:23:51.521Z,87.41
2022-10-18T23:26:21.349Z,87.12
2022-10-18T23:28:50.722Z,87.83
2022-10-18T23:31:19.179Z,87.33
2022-10-18T23:33:48.128Z,87.00
2022-10-18T23:36:15.083Z,87.90
2022-10-18T23:38:42.475Z,87.93
2022-10-18T23:41:11.791Z,87.77
2022-10-18T23:43:39.000Z,87.30
2022-10-18T23:46:06.008Z,88.13
2022-10-18T23:48:34.285Z,88.25
2022-10-18T23:51:01.696Z,88.41
2022-10-18T23:53:29.017Z,88.35
2022-10-18T23:56:07.780Z,87.43
2022-10-18T23:58:35.949Z,87.91
